Time;durP1;ratioP1;P1;durP2;ratioP2;P2;SDS_P1;SDS_P2;PMS_P1;PMS_P2;Temp;Humidity;BMP_temperature;BMP_pressure;BME280_temperature;BME280_humidity;BME280_pressure;Samples;Min_cycle;Max_cycle;Signal;HPM_P1;HPM_P2
2022/02/23 00:01:09;;;;;;;12.48;2.38;;;;;;;6.18;100.00;102152.72;5264429;28;20026;-75
2022/02/23 00:03:40;;;;;;;8.88;2.42;;;;;;;6.12;100.00;102155.59;5265599;28;20124;-75
2022/02/23 00:06:12;;;;;;;10.90;3.22;;;;;;;6.14;100.00;102164.19;5267088;28;20149;-74
2022/02/23 00:08:43;;;;;;;13.63;2.40;;;;;;;6.11;100.00;102171.28;5264350;28;20036;-75
2022/02/23 00:11:16;;;;;;;14.65;3.08;;;;;;;6.09;100.00;102173.94;5264293;28;20044;-75
2022/02/23 00:13:47;;;;;;;19.05;3.30;;;;;;;6.03;100.00;102172.47;5259124;28;20513;-75
2022/02/23 00:16:18;;;;;;;11.07;2.55;;;;;;;6.03;100.00;102176.84;5263740;28;20060;-75
2022/02/23 00:18:50;;;;;;;14.38;2.78;;;;;;;6.00;100.00;102175.22;5263066;28;20036;-75
2022/02/23 00:21:21;;;;;;;14.82;2.85;;;;;;;6.01;100.00;102176.88;5262247;28;20043;-75
2022/02/23 00:23:52;;;;;;;11.65;2.65;;;;;;;5.98;100.00;102181.38;5262279;28;20033;-74
2022/02/23 00:26:23;;;;;;;13.63;2.47;;;;;;;5.93;100.00;102184.19;5267384;28;20025;-75
2022/02/23 00:28:55;;;;;;;11.98;2.65;;;;;;;5.89;100.00;102186.97;5264805;28;20046;-75
2022/02/23 00:31:26;;;;;;;12.43;2.72;;;;;;;5.86;100.00;102187.94;5266111;28;20032;-75
2022/02/23 00:33:58;;;;;;;11.82;2.70;;;;;;;5.83;100.00;102188.06;5267178;28;20090;-75
2022/02/23 00:36:29;;;;;;;10.77;2.63;;;;;;;5.78;100.00;102190.88;5264195;28;20056;-75
2022/02/23 00:39:00;;;;;;;14.57;3.38;;;;;;;5.76;100.00;102195.31;5265133;28;20386;-75
2022/02/23 00:41:31;;;;;;;14.15;2.50;;;;;;;5.73;100.00;102192.00;5266118;28;20019;-74
2022/02/23 00:44:03;;;;;;;16.98;3.55;;;;;;;5.73;100.00;102194.59;5264779;28;20041;-74
2022/02/23 00:46:34;;;;;;;12.82;2.42;;;;;;;5.67;100.00;102202.63;5263862;28;20470;-75
2022/02/23 00:49:06;;;;;;;14.02;2.55;;;;;;;5.65;100.00;102205.31;5264974;28;20028;-75
2022/02/23 00:51:37;;;;;;;9.25;2.72;;;;;;;5.61;100.00;102207.19;5267922;28;20559;-74
2022/02/23 00:54:09;;;;;;;14.75;2.97;;;;;;;5.59;100.00;102209.00;5268868;28;20020;-75
2022/02/23 00:56:40;;;;;;;12.15;2.83;;;;;;;5.56;100.00;102206.53;5264569;28;20505;-75
2022/02/23 00:59:11;;;;;;;13.38;3.47;;;;;;;5.55;100.00;102206.59;5265779;28;20024;-75
2022/02/23 01:01:43;;;;;;;14.50;2.80;;;;;;;5.52;100.00;102212.75;5259971;28;20032;-75
2022/02/23 01:04:14;;;;;;;14.77;2.72;;;;;;;5.50;100.00;102212.00;5261670;28;20394;-75
2022/02/23 01:06:45;;;;;;;12.90;2.85;;;;;;;5.44;100.00;102214.84;5268943;28;20359;-74
2022/02/23 01:09:17;;;;;;;13.82;2.90;;;;;;;5.45;100.00;102219.13;5266131;28;20028;-74
2022/02/23 01:11:48;;;;;;;11.68;3.45;;;;;;;5.41;100.00;102216.72;5265468;28;20052;-75
2022/02/23 01:14:20;;;;;;;13.55;3.72;;;;;;;5.41;100.00;102225.34;5267145;28;20029;-75
2022/02/23 01:16:51;;;;;;;16.80;3.30;;;;;;;5.38;100.00;102228.09;5265507;28;20039;-75
2022/02/23 01:19:22;;;;;;;13.18;3.03;;;;;;;5.35;100.00;102220.44;5259734;28;20037;-75
2022/02/23 01:21:53;;;;;;;15.05;2.97;;;;;;;5.35;100.00;102228.22;5264475;28;20029;-74
2022/02/23 01:24:25;;;;;;;15.30;3.58;;;;;;;5.33;100.00;102233.47;5261571;28;20067;-75
2022/02/23 01:26:56;;;;;;;14.95;3.08;;;;;;;5.26;100.00;102234.63;5264024;28;20250;-74
2022/02/23 01:29:27;;;;;;;15.90;3.10;;;;;;;5.31;100.00;102243.09;5263443;28;20025;-74
2022/02/23 01:31:59;;;;;;;11.57;2.80;;;;;;;5.31;100.00;102239.66;5265162;28;20028;-75
2022/02/23 01:34:30;;;;;;;14.30;3.97;;;;;;;5.23;100.00;102241.72;5263515;28;20071;-74
2022/02/23 01:37:01;;;;;;;14.50;3.75;;;;;;;5.28;100.00;102247.56;5264468;28;20398;-74
2022/02/23 01:39:33;;;;;;;18.40;3.88;;;;;;;5.29;100.00;102244.91;5263571;28;20111;-74
2022/02/23 01:42:04;;;;;;;13.48;2.95;;;;;;;5.27;100.00;102244.13;5263417;28;20029;-75
2022/02/23 01:44:35;;;;;;;15.25;2.90;;;;;;;5.23;100.00;102237.38;5265291;28;20024;-75
2022/02/23 01:47:07;;;;;;;14.70;3.20;;;;;;;5.22;100.00;102237.41;5265511;28;20077;-74
2022/02/23 01:49:39;;;;;;;13.45;2.85;;;;;;;5.19;100.00;102237.53;5263325;28;20048;-75
2022/02/23 01:52:10;;;;;;;17.23;3.40;;;;;;;5.22;100.00;102240.00;5263058;28;20029;-74
2022/02/23 01:54:42;;;;;;;17.25;3.75;;;;;;;5.23;100.00;102247.75;5265338;28;20058;-75
2022/02/23 01:57:13;;;;;;;15.13;3.28;;;;;;;5.19;100.00;102254.00;5262390;28;20043;-75
2022/02/23 01:59:44;;;;;;;11.90;3.42;;;;;;;5.22;100.00;102263.38;5266108;28;20374;-74
2022/02/23 02:02:16;;;;;;;11.82;2.90;;;;;;;5.20;100.00;102255.66;5265178;28;20373;-75
2022/02/23 02:04:48;;;;;;;13.95;3.55;;;;;;;5.15;100.00;102251.53;5266918;28;20044;-75
2022/02/23 02:07:19;;;;;;;13.43;3.55;;;;;;;5.16;100.00;102258.47;5262685;28;20037;-74
2022/02/23 02:09:50;;;;;;;11.00;3.05;;;;;;;5.12;100.00;102258.56;5267296;28;20440;-75
2022/02/23 02:12:22;;;;;;;14.63;3.17;;;;;;;5.13;100.00;102269.81;5265834;28;20390;-75
2022/02/23 02:14:54;;;;;;;16.63;3.33;;;;;;;5.09;100.00;102263.88;5264197;28;20493;-74
2022/02/23 02:17:26;;;;;;;13.73;3.53;;;;;;;5.08;100.00;102275.19;5262376;28;20064;-74
2022/02/23 02:19:58;;;;;;;17.58;3.28;;;;;;;5.05;100.00;102269.25;5268735;28;20501;-74
2022/02/23 02:22:29;;;;;;;15.13;3.40;;;;;;;5.03;100.00;102274.50;5262141;28;20052;-74
2022/02/23 02:25:01;;;;;;;16.63;3.85;;;;;;;5.03;100.00;102279.69;5265972;28;20028;-75
2022/02/23 02:27:32;;;;;;;16.08;3.28;;;;;;;4.98;100.00;102284.22;5261789;28;20036;-75
2022/02/23 02:30:05;;;;;;;13.52;3.15;;;;;;;5.02;100.00;102292.75;5265777;28;20031;-74
2022/02/23 02:32:36;;;;;;;17.95;3.70;;;;;;;4.96;100.00;102285.19;5263331;28;20106;-74
2022/02/23 02:35:08;;;;;;;16.88;4.22;;;;;;;4.95;100.00;102299.09;5261849;28;20021;-74
2022/02/23 02:37:39;;;;;;;12.20;3.38;;;;;;;4.93;100.00;102293.97;5259731;28;20509;-75
2022/02/23 02:40:11;;;;;;;11.10;2.60;;;;;;;4.93;100.00;102295.72;5260759;28;20031;-74
2022/02/23 02:42:42;;;;;;;15.50;3.38;;;;;;;4.86;100.00;102297.69;5261327;28;20043;-74
2022/02/23 02:45:13;;;;;;;20.58;4.53;;;;;;;4.86;100.00;102302.88;5265017;28;20098;-75
2022/02/23 02:47:44;;;;;;;12.30;3.55;;;;;;;4.83;100.00;102297.78;5260569;28;20504;-74
2022/02/23 02:50:16;;;;;;;11.95;3.50;;;;;;;4.82;100.00;102314.28;5265302;28;20103;-75
2022/02/23 02:52:47;;;;;;;13.10;3.17;;;;;;;4.81;100.00;102309.97;5266480;28;20056;-74
2022/02/23 02:55:20;;;;;;;13.25;3.92;;;;;;;4.77;100.00;102303.19;5266275;28;20389;-74
2022/02/23 02:57:52;;;;;;;14.47;4.03;;;;;;;4.76;100.00;102307.56;5263895;28;20086;-74
2022/02/23 03:00:24;;;;;;;10.98;2.70;;;;;;;4.71;100.00;102306.03;5260986;28;20672;-74
2022/02/23 03:02:55;;;;;;;13.07;3.20;;;;;;;4.71;100.00;102303.44;5261887;28;20031;-74
2022/02/23 03:05:29;;;;;;;15.52;3.08;;;;;;;4.68;100.00;102307.00;5259615;28;20041;-74
2022/02/23 03:08:00;;;;;;;10.57;2.80;;;;;;;4.69;100.00;102315.63;5259836;28;20054;-74
2022/02/23 03:10:32;;;;;;;12.07;3.05;;;;;;;4.65;100.00;102312.28;5268741;28;20048;-74
2022/02/23 03:13:03;;;;;;;15.00;2.85;;;;;;;4.63;100.00;102308.91;5268664;28;20024;-74
2022/02/23 03:15:34;;;;;;;16.23;3.63;;;;;;;4.65;100.00;102322.69;5267611;28;20718;-74
2022/02/23 03:18:06;;;;;;;12.48;3.00;;;;;;;4.63;100.00;102325.34;5266743;28;20110;-75
2022/02/23 03:20:38;;;;;;;11.82;2.83;;;;;;;4.60;100.00;102322.84;5266187;28;20157;-74
2022/02/23 03:23:09;;;;;;;14.27;4.32;;;;;;;4.61;100.00;102332.31;5264671;28;20035;-74
2022/02/23 03:25:41;;;;;;;23.05;4.68;;;;;;;4.57;100.00;102333.34;5264914;28;20398;-74
2022/02/23 03:28:12;;;;;;;13.13;3.58;;;;;;;4.54;100.00;102338.63;5268462;28;20154;-74
2022/02/23 03:30:43;;;;;;;14.48;3.92;;;;;;;4.51;100.00;102343.06;5264915;28;20033;-75
2022/02/23 03:33:16;;;;;;;13.52;3.03;;;;;;;4.51;100.00;102353.47;5267512;28;20398;-74
2022/02/23 03:35:47;;;;;;;14.50;3.33;;;;;;;4.48;100.00;102346.66;5268276;28;20037;-74
2022/02/23 03:38:19;;;;;;;14.38;3.00;;;;;;;4.47;100.00;102347.56;5266763;28;20428;-74
2022/02/23 03:40:50;;;;;;;17.08;3.53;;;;;;;4.46;100.00;102351.03;5261599;28;20024;-74
2022/02/23 03:43:21;;;;;;;16.50;3.60;;;;;;;4.45;100.00;102349.34;5267197;28;20123;-74
2022/02/23 03:45:53;;;;;;;17.13;3.75;;;;;;;4.44;100.00;102346.81;5269941;28;20028;-74
2022/02/23 03:48:24;;;;;;;17.20;3.97;;;;;;;4.40;100.00;102343.47;5263809;28;20040;-74
2022/02/23 03:50:55;;;;;;;16.00;3.67;;;;;;;4.37;100.00;102347.03;5267433;28;20460;-74
2022/02/23 03:53:27;;;;;;;14.45;3.88;;;;;;;4.37;100.00;102348.78;5264852;28;20568;-75
2022/02/23 03:55:58;;;;;;;18.70;3.75;;;;;;;4.34;100.00;102352.31;5265350;28;20063;-75
2022/02/23 03:58:29;;;;;;;17.60;3.80;;;;;;;4.32;100.00;102359.31;5264471;28;20057;-74
2022/02/23 04:01:01;;;;;;;14.35;3.10;;;;;;;4.32;100.00;102351.53;5263802;28;20046;-74
2022/02/23 04:03:32;;;;;;;14.98;3.08;;;;;;;4.29;100.00;102364.59;5265791;28;20033;-75
2022/02/23 04:06:04;;;;;;;17.60;4.13;;;;;;;4.26;100.00;102358.66;5262450;28;20043;-75
2022/02/23 04:08:35;;;;;;;18.13;3.47;;;;;;;4.30;100.00;102368.88;5266356;28;20036;-74
2022/02/23 04:11:06;;;;;;;14.55;3.17;;;;;;;4.28;100.00;102380.19;5267550;28;20179;-74
2022/02/23 04:13:37;;;;;;;15.07;3.22;;;;;;;4.28;100.00;102377.59;5271105;28;20040;-74
2022/02/23 04:16:09;;;;;;;14.52;3.55;;;;;;;4.25;100.00;102373.41;5260675;28;20116;-75
2022/02/23 04:18:41;;;;;;;15.82;3.30;;;;;;;4.25;100.00;102381.16;5267289;28;20025;-74
2022/02/23 04:21:12;;;;;;;15.17;3.70;;;;;;;4.23;100.00;102382.97;5266785;28;20021;-74
2022/02/23 04:23:44;;;;;;;13.75;3.05;;;;;;;4.18;100.00;102386.63;5264492;28;20094;-74
2022/02/23 04:26:17;;;;;;;12.43;2.97;;;;;;;4.17;100.00;102390.97;5261426;28;20060;-74
2022/02/23 04:28:48;;;;;;;15.02;3.33;;;;;;;4.15;100.00;102396.19;5262654;28;20344;-74
2022/02/23 04:31:20;;;;;;;19.67;3.75;;;;;;;4.15;100.00;102393.59;5265754;28;20035;-74
2022/02/23 04:33:51;;;;;;;9.75;2.95;;;;;;;4.15;100.00;102403.97;5266290;28;20412;-75
2022/02/23 04:36:22;;;;;;;16.75;3.97;;;;;;;4.13;100.00;102402.34;5261915;28;20024;-74
2022/02/23 04:38:54;;;;;;;13.05;2.78;;;;;;;4.08;100.00;102402.47;5263194;28;20029;-75
2022/02/23 04:41:25;;;;;;;12.75;3.00;;;;;;;4.09;100.00;102403.31;5263739;28;20040;-74
2022/02/23 04:43:57;;;;;;;10.77;2.60;;;;;;;4.05;100.00;102407.78;5264025;28;20480;-74
2022/02/23 04:46:28;;;;;;;15.57;3.15;;;;;;;4.00;100.00;102407.06;5265184;28;20402;-74
2022/02/23 04:49:00;;;;;;;13.65;4.10;;;;;;;4.01;100.00;102407.91;5264552;28;20032;-74
2022/02/23 04:51:31;;;;;;;16.90;3.25;;;;;;;3.94;100.00;102403.81;5262294;28;20033;-74
2022/02/23 04:54:03;;;;;;;11.88;2.97;;;;;;;3.93;100.00;102405.56;5266743;28;20032;-74
2022/02/23 04:56:34;;;;;;;14.15;3.35;;;;;;;3.95;100.00;102410.72;5266348;28;20120;-74
2022/02/23 04:59:08;;;;;;;18.38;3.75;;;;;;;3.93;100.00;102418.53;5268115;28;20043;-74
2022/02/23 05:01:39;;;;;;;15.38;4.00;;;;;;;3.88;100.00;102410.91;5263374;28;20029;-74
2022/02/23 05:04:10;;;;;;;16.67;2.60;;;;;;;3.87;100.00;102410.97;5261615;28;20096;-74
2022/02/23 05:06:45;;;;;;;13.43;2.83;;;;;;;3.92;100.00;102416.00;5257116;28;20037;-74
2022/02/23 05:09:16;;;;;;;17.83;4.10;;;;;;;3.86;100.00;102410.13;5267925;28;20290;-75
2022/02/23 05:11:48;;;;;;;13.82;3.35;;;;;;;3.83;100.00;102417.97;5263352;28;20048;-74
2022/02/23 05:14:20;;;;;;;20.95;3.72;;;;;;;3.85;100.00;102417.91;5265987;28;20119;-74
2022/02/23 05:16:51;;;;;;;14.77;3.65;;;;;;;3.84;100.00;102416.22;5265165;28;20056;-74
2022/02/23 05:19:23;;;;;;;13.45;3.67;;;;;;;3.84;100.00;102421.41;5260670;28;20063;-75
2022/02/23 05:21:54;;;;;;;17.73;3.65;;;;;;;3.84;100.00;102421.41;5262168;28;20033;-74
2022/02/23 05:24:26;;;;;;;18.10;4.25;;;;;;;3.80;100.00;102423.25;5264959;28;20056;-74
2022/02/23 05:26:57;;;;;;;15.82;3.63;;;;;;;3.76;100.00;102432.03;5264582;28;20075;-74
2022/02/23 05:29:31;;;;;;;17.35;3.85;;;;;;;3.79;100.00;102425.88;5262813;28;20036;-74
2022/02/23 05:32:02;;;;;;;;;;;;;;;4.20;100.00;102434.09;5262357;28;20025;-74
2022/02/23 05:34:33;;;;;;;12.98;4.07;;;;;;;3.81;100.00;102431.88;5260023;28;19913;-74
2022/02/23 05:37:05;;;;;;;13.80;3.70;;;;;;;3.81;100.00;102424.09;5259176;28;20028;-74
2022/02/23 05:39:36;;;;;;;17.15;3.92;;;;;;;3.76;100.00;102421.66;5269991;28;20481;-74
2022/02/23 05:42:07;;;;;;;18.95;4.45;;;;;;;3.72;100.00;102425.25;5261358;28;20066;-74
2022/02/23 05:44:39;;;;;;;16.15;3.80;;;;;;;3.73;100.00;102433.84;5264666;28;20313;-75
2022/02/23 05:47:10;;;;;;;19.75;4.53;;;;;;;3.71;100.00;102431.28;5264574;28;20032;-74
2022/02/23 05:49:41;;;;;;;14.98;4.60;;;;;;;3.68;100.00;102435.75;5264390;28;20477;-74
2022/02/23 05:52:14;;;;;;;20.27;4.43;;;;;;;3.63;100.00;102436.72;5266358;28;20081;-74
2022/02/23 05:54:45;;;;;;;14.32;3.58;;;;;;;3.61;100.00;102442.84;5264996;28;20028;-74
2022/02/23 05:57:17;;;;;;;22.38;4.85;;;;;;;3.61;100.00;102443.69;5262828;28;20493;-74
2022/02/23 05:59:48;;;;;;;13.15;4.35;;;;;;;3.60;100.00;102441.16;5263167;28;20028;-74
2022/02/23 06:02:20;;;;;;;16.70;4.63;;;;;;;3.57;100.00;102436.91;5265328;28;20135;-74
2022/02/23 06:04:51;;;;;;;15.50;4.50;;;;;;;3.55;100.00;102440.44;5262982;28;20024;-74
2022/02/23 06:07:22;;;;;;;17.20;4.72;;;;;;;3.54;100.00;102446.53;5261117;28;20158;-73
2022/02/23 06:09:53;;;;;;;12.18;4.13;;;;;;;3.51;100.00;102444.88;5266382;28;20040;-74
2022/02/23 06:12:25;;;;;;;16.65;4.85;;;;;;;3.51;100.00;102434.50;5266647;28;20067;-74
2022/02/23 06:14:56;;;;;;;16.73;4.70;;;;;;;3.51;100.00;102442.28;5263440;28;20017;-74
2022/02/23 06:17:28;;;;;;;19.35;5.47;;;;;;;3.47;100.00;102445.00;5262571;28;20033;-74
2022/02/23 06:20:00;;;;;;;16.15;5.60;;;;;;;3.46;100.00;102441.56;5264157;28;20038;-74
2022/02/23 06:22:31;;;;;;;20.15;5.07;;;;;;;3.45;100.00;102444.19;5266767;28;20035;-74
2022/02/23 06:25:03;;;;;;;21.92;5.47;;;;;;;3.40;100.00;102452.94;5260329;28;20407;-74
2022/02/23 06:27:35;;;;;;;18.88;6.90;;;;;;;3.40;100.00;102454.69;5261652;28;20028;-74
2022/02/23 06:30:07;;;;;;;19.02;6.63;;;;;;;3.37;100.00;102450.47;5261014;28;20517;-74
2022/02/23 06:32:38;;;;;;;16.70;6.40;;;;;;;3.31;100.00;102453.22;5262570;28;20540;-73
2022/02/23 06:35:09;;;;;;;17.60;6.97;;;;;;;3.28;100.00;102450.72;5261760;28;20024;-74
2022/02/23 06:37:41;;;;;;;19.55;6.90;;;;;;;3.35;100.00;102461.75;5262461;28;20095;-73
2022/02/23 06:40:13;;;;;;;18.38;7.63;;;;;;;3.37;100.00;102468.59;5263826;28;20107;-73
2022/02/23 06:42:44;;;;;;;21.88;8.32;;;;;;;3.35;100.00;102465.19;5266246;28;20350;-73
2022/02/23 06:45:16;;;;;;;16.90;8.10;;;;;;;3.35;100.00;102466.94;5266332;28;20096;-73
2022/02/23 06:47:47;;;;;;;21.48;8.95;;;;;;;3.34;100.00;102473.03;5272340;28;20036;-73
2022/02/23 06:50:18;;;;;;;21.38;7.93;;;;;;;3.33;100.00;102474.75;5264681;28;20108;-73
2022/02/23 06:52:51;;;;;;;18.50;8.65;;;;;;;3.34;100.00;102470.44;5266658;28;20420;-73
2022/02/23 06:55:23;;;;;;;19.17;8.32;;;;;;;3.33;100.00;102468.72;5267537;28;20017;-73
2022/02/23 06:57:54;;;;;;;17.88;8.48;;;;;;;3.33;100.00;102466.13;5264176;28;20056;-73
2022/02/23 07:00:25;;;;;;;27.38;8.75;;;;;;;3.34;100.00;102473.03;5262719;28;20016;-73
2022/02/23 07:02:57;;;;;;;22.17;9.02;;;;;;;3.32;100.00;102473.03;5267392;28;20466;-74
2022/02/23 07:05:28;;;;;;;19.25;8.82;;;;;;;3.30;100.00;102466.22;5262263;28;20028;-74
2022/02/23 07:08:03;;;;;;;24.27;9.43;;;;;;;3.34;100.00;102473.03;5262228;28;20079;-73
2022/02/23 07:10:36;;;;;;;18.95;9.35;;;;;;;3.34;100.00;102475.59;5261176;28;20056;-73
2022/02/23 07:13:08;;;;;;;17.77;8.53;;;;;;;3.32;100.00;102477.38;5263715;28;20622;-74
2022/02/23 07:15:39;;;;;;;19.83;10.00;;;;;;;3.28;100.00;102475.78;5267515;28;20294;-73
2022/02/23 07:18:10;;;;;;;22.73;9.55;;;;;;;3.34;100.00;102475.59;5263949;28;20123;-74
2022/02/23 07:20:42;;;;;;;22.33;10.05;;;;;;;3.31;100.00;102475.69;5262310;28;20036;-74
2022/02/23 07:23:13;;;;;;;19.02;9.07;;;;;;;3.34;100.00;102483.38;5263731;28;20075;-73
2022/02/23 07:25:45;;;;;;;21.27;10.70;;;;;;;3.38;100.00;102487.59;5262994;28;20043;-73
2022/02/23 07:28:16;;;;;;;19.25;10.10;;;;;;;3.38;100.00;102488.44;5260575;28;20021;-73
2022/02/23 07:30:48;;;;;;;27.38;10.70;;;;;;;3.35;100.00;102488.50;5262961;28;20029;-73
2022/02/23 07:33:19;;;;;;;27.25;10.40;;;;;;;3.41;100.00;102495.28;5273107;28;20115;-73
2022/02/23 07:35:51;;;;;;;20.38;10.18;;;;;;;3.46;100.00;102501.16;5267886;28;20032;-74
2022/02/23 07:38:22;;;;;;;17.98;10.35;;;;;;;3.47;100.00;102505.44;5256681;28;20089;-73
2022/02/23 07:40:54;;;;;;;21.92;10.40;;;;;;;3.48;100.00;102504.53;5257674;28;20040;-73
2022/02/23 07:43:25;;;;;;;21.00;10.32;;;;;;;3.52;100.00;102500.97;5262558;28;20040;-74
2022/02/23 07:45:58;;;;;;;20.45;11.02;;;;;;;3.55;100.00;102506.06;5262002;28;20058;-75
2022/02/23 07:48:29;;;;;;;25.55;11.02;;;;;;;3.59;100.00;102497.31;5255515;28;20029;-73
2022/02/23 07:51:03;;;;;;;27.77;11.48;;;;;;;3.64;100.00;102503.22;5265648;28;20082;-73
2022/02/23 07:53:34;;;;;;;21.42;11.07;;;;;;;3.68;100.00;102505.72;5266939;28;20024;-73
2022/02/23 07:56:06;;;;;;;22.25;10.50;;;;;;;3.70;100.00;102506.53;5265777;28;20056;-73
2022/02/23 07:58:37;;;;;;;27.90;11.57;;;;;;;3.74;100.00;102500.34;5264915;28;20036;-73
2022/02/23 08:01:37;;;;;;;25.15;10.88;;;;;;;3.97;100.00;102513.47;5263920;28;20025;-73
2022/02/23 08:04:09;;;;;;;30.92;12.65;;;;;;;3.88;100.00;102518.94;5261579;28;20021;-73
2022/02/23 08:06:41;;;;;;;25.30;13.03;;;;;;;3.88;100.00;102516.34;5261346;28;20020;-73
2022/02/23 08:09:12;;;;;;;21.20;11.45;;;;;;;4.00;100.00;102528.94;5263023;28;20546;-73
2022/02/23 08:11:43;;;;;;;22.92;10.85;;;;;;;4.00;100.00;102513.38;5263460;28;20060;-73
2022/02/23 08:14:15;;;;;;;25.75;10.77;;;;;;;4.10;100.00;102519.16;5260579;28;20024;-73
2022/02/23 08:19:37;;;;;;;21.67;11.27;;;;;;;4.22;100.00;102512.72;5265467;28;20464;-73
2022/02/23 08:22:11;;;;;;;26.70;11.30;;;;;;;4.29;100.00;102519.44;5259037;28;20028;-74
2022/02/23 08:24:47;;;;;;;24.50;10.98;;;;;;;4.33;100.00;102516.69;5263008;28;20116;-74
2022/02/23 08:27:20;;;;;;;21.13;10.85;;;;;;;4.35;100.00;102508.84;5261047;28;20090;-74
2022/02/23 08:29:54;;;;;;;24.75;13.00;;;;;;;4.47;100.00;102513.66;5270845;28;20163;-73
2022/02/23 08:32:26;;;;;;;26.23;11.07;;;;;;;4.49;100.00;102511.84;5265385;28;20040;-73
2022/02/23 08:34:57;;;;;;;24.15;10.43;;;;;;;4.62;100.00;102512.28;5261569;28;20029;-73
2022/02/23 08:37:28;;;;;;;23.67;11.75;;;;;;;4.69;100.00;102515.53;5265867;28;20020;-73
2022/02/23 08:40:00;;;;;;;20.63;10.70;;;;;;;4.72;100.00;102513.66;5264106;28;20041;-73
2022/02/23 08:42:31;;;;;;;27.95;11.18;;;;;;;4.84;100.00;102517.59;5260789;28;20026;-74
2022/02/23 08:45:02;;;;;;;18.48;10.35;;;;;;;4.90;100.00;102527.78;5259396;28;20083;-75
2022/02/23 08:47:34;;;;;;;25.10;11.23;;;;;;;4.96;100.00;102524.13;5259436;28;20097;-73
2022/02/23 08:50:07;;;;;;;27.42;11.02;;;;;;;5.04;100.00;102517.78;5255139;28;20017;-74
2022/02/23 08:52:38;;;;;;;26.98;10.18;;;;;;;5.16;100.00;102523.44;5268817;28;20040;-73
2022/02/23 08:55:10;;;;;;;23.83;10.15;;;;;;;5.24;100.00;102522.28;5257444;28;20024;-74
2022/02/23 08:57:41;;;;;;;22.48;9.80;;;;;;;5.29;100.00;102524.69;5265464;28;20038;-74
2022/02/23 09:00:13;;;;;;;25.65;10.50;;;;;;;5.39;100.00;102513.06;5256340;28;20032;-74
2022/02/23 09:02:44;;;;;;;24.35;9.57;;;;;;;5.50;100.00;102523.94;5261558;28;20480;-74
2022/02/23 09:05:15;;;;;;;26.85;10.30;;;;;;;5.63;100.00;102521.72;5257399;28;20033;-75
2022/02/23 09:07:47;;;;;;;29.65;9.50;;;;;;;5.69;100.00;102523.25;5263125;28;20592;-74
2022/02/23 09:10:19;;;;;;;18.15;8.27;;;;;;;5.77;100.00;102527.25;5264204;28;20552;-74
2022/02/23 09:12:50;;;;;;;23.77;9.00;;;;;;;5.82;100.00;102521.88;5262624;28;20029;-74
2022/02/23 09:15:21;;;;;;;21.35;9.07;;;;;;;5.96;100.00;102521.41;5264791;28;20394;-74
2022/02/23 09:17:52;;;;;;;22.77;8.50;;;;;;;6.06;100.00;102518.38;5261572;28;20364;-74
2022/02/23 09:20:24;;;;;;;20.55;8.32;;;;;;;6.13;100.00;102523.31;5260930;28;20090;-74
2022/02/23 09:22:55;;;;;;;23.65;8.48;;;;;;;6.26;100.00;102524.56;5264794;28;20033;-75
2022/02/23 09:25:27;;;;;;;17.02;7.43;;;;;;;6.33;100.00;102523.41;5261763;28;20417;-74
2022/02/23 09:27:58;;;;;;;20.88;7.00;;;;;;;6.36;100.00;102509.41;5261835;28;20101;-75
2022/02/23 09:30:30;;;;;;;25.80;7.72;;;;;;;6.52;100.00;102521.75;5261054;28;20025;-74
2022/02/23 09:33:01;;;;;;;17.73;6.65;;;;;;;6.63;100.00;102520.44;5263922;28;20107;-75
2022/02/23 09:35:34;;;;;;;19.58;6.97;;;;;;;6.69;100.00;102518.44;5263371;28;20058;-74
2022/02/23 09:38:05;;;;;;;20.80;6.47;;;;;;;6.82;100.00;102510.97;5263894;28;20028;-75
2022/02/23 09:40:38;;;;;;;18.10;6.28;;;;;;;6.91;100.00;102502.75;5259024;28;20028;-75
2022/02/23 09:43:09;;;;;;;24.77;6.60;;;;;;;7.05;100.00;102502.16;5260061;28;20083;-75
2022/02/23 09:45:43;;;;;;;22.55;6.35;;;;;;;7.18;100.00;102502.47;5258198;28;20271;-74
2022/02/23 09:48:14;;;;;;;19.27;6.47;;;;;;;7.30;100.00;102505.38;5261161;28;20115;-75
2022/02/23 09:50:45;;;;;;;17.13;5.97;;;;;;;7.37;100.00;102500.72;5259944;28;20029;-75
2022/02/23 09:53:18;;;;;;;19.55;6.00;;;;;;;7.42;100.00;102500.50;5263045;28;20108;-74
2022/02/23 09:55:56;;;;;;;18.55;5.05;;;;;;;7.55;100.00;102497.28;5258556;28;20039;-75
2022/02/23 09:58:27;;;;;;;18.65;5.63;;;;;;;7.72;100.00;102496.50;5261233;28;20029;-75
2022/02/23 10:01:00;;;;;;;19.42;5.15;;;;;;;7.84;100.00;102494.25;5266310;28;20043;-75
2022/02/23 10:03:34;;;;;;;16.92;4.47;;;;;;;8.05;100.00;102495.84;5256026;28;20025;-75
2022/02/23 10:06:05;;;;;;;;;;;;;;;8.50;100.00;102503.25;5260897;28;20059;-74
2022/02/23 10:08:37;;;;;;;17.13;4.60;;;;;;;8.37;100.00;102499.56;5258486;28;20419;-75
2022/02/23 10:11:17;;;;;;;19.90;4.60;;;;;;;8.56;100.00;102490.78;5260301;28;20449;-75
2022/02/23 10:13:50;;;;;;;18.15;4.35;;;;;;;8.59;100.00;102488.88;5260731;28;20029;-75
2022/02/23 10:16:27;;;;;;;17.75;4.32;;;;;;;8.76;100.00;102495.88;5260933;28;20025;-75
2022/02/23 10:19:09;;;;;;;20.77;3.97;;;;;;;8.85;100.00;102498.00;5257983;28;20152;-74
2022/02/23 10:21:47;;;;;;;18.67;4.43;;;;;;;8.95;100.00;102490.56;5255983;28;20033;-75
2022/02/23 10:24:25;;;;;;;16.13;3.90;;;;;;;9.00;100.00;102488.53;5259074;28;20551;-75
2022/02/23 10:26:57;;;;;;;13.35;4.43;;;;;;;9.16;100.00;102484.19;5262594;28;20032;-75
2022/02/23 10:29:32;;;;;;;14.77;3.60;;;;;;;9.22;100.00;102499.56;5264468;28;20025;-74
2022/02/23 10:32:09;;;;;;;18.95;4.90;;;;;;;9.32;100.00;102489.47;5258179;28;20446;-74
2022/02/23 10:34:47;;;;;;;18.40;4.10;;;;;;;9.42;100.00;102492.44;5259022;28;20079;-75
2022/02/23 10:37:24;;;;;;;12.07;3.65;;;;;;;9.52;100.00;102493.63;5257742;28;20381;-74
2022/02/23 10:39:59;;;;;;;16.80;3.72;;;;;;;9.62;100.00;102492.22;5257277;28;20293;-75
2022/02/23 10:42:33;;;;;;;13.18;3.10;;;;;;;9.65;100.00;102488.56;5259270;28;20040;-74
2022/02/23 10:45:06;;;;;;;16.02;4.03;;;;;;;9.80;100.00;102487.72;5261609;28;20029;-75
2022/02/23 10:47:42;;;;;;;13.13;3.75;;;;;;;9.93;100.00;102490.53;5260479;28;20153;-75
2022/02/23 10:50:16;;;;;;;12.85;2.80;;;;;;;10.05;100.00;102473.28;5260471;28;20016;-75
2022/02/23 10:52:58;;;;;;;14.18;3.33;;;;;;;10.17;100.00;102473.41;5260131;28;21030;-75
2022/02/23 10:55:32;;;;;;;12.18;3.83;;;;;;;10.30;100.00;102481.44;5258544;28;20048;-75
2022/02/23 10:58:06;;;;;;;12.10;3.25;;;;;;;10.22;100.00;102468.75;5260805;28;20025;-75
2022/02/23 11:00:40;;;;;;;13.82;3.65;;;;;;;10.35;100.00;102475.97;5262669;28;20017;-75
2022/02/23 11:03:13;;;;;;;13.27;3.05;;;;;;;10.40;100.00;102479.97;5275828;28;20032;-75
2022/02/23 11:05:47;;;;;;;14.27;3.65;;;;;;;10.48;100.00;102472.53;5265188;28;20056;-75
2022/02/23 11:08:19;;;;;;;12.00;3.15;;;;;;;10.46;100.00;102468.31;5255615;28;20360;-75
2022/02/23 11:10:50;;;;;;;14.02;3.28;;;;;;;10.45;100.00;102472.72;5262886;28;20139;-74
2022/02/23 11:13:23;;;;;;;13.00;3.45;;;;;;;10.41;100.00;102480.81;5264976;28;20112;-74
2022/02/23 11:15:55;;;;;;;10.45;3.42;;;;;;;10.46;100.00;102463.91;5258737;28;20411;-74
2022/02/23 11:18:28;;;;;;;15.50;3.90;;;;;;;10.66;100.00;102469.75;5266974;28;20040;-74
2022/02/23 11:21:01;;;;;;;10.15;3.60;;;;;;;10.60;100.00;102470.13;5256387;28;20029;-75
2022/02/23 11:23:34;;;;;;;14.63;3.00;;;;;;;10.56;100.00;102463.38;5265688;28;21057;-75
2022/02/23 11:26:08;;;;;;;13.82;3.63;;;;;;;10.79;100.00;102460.22;5259271;28;20029;-74
2022/02/23 11:28:48;;;;;;;11.60;2.88;;;;;;;10.95;100.00;102466.25;5263003;28;20032;-74
2022/02/23 11:31:20;;;;;;;11.30;3.28;;;;;;;10.96;100.00;102454.81;5263914;28;20032;-74
2022/02/23 11:34:05;;;;;;;11.05;3.20;;;;;;;11.05;100.00;102465.69;5262736;28;20025;-74
2022/02/23 11:36:44;;;;;;;8.38;2.70;;;;;;;10.96;100.00;102453.97;5263512;28;20103;-74
2022/02/23 11:39:17;;;;;;;13.02;3.03;;;;;;;11.04;100.00;102450.88;5265033;28;20032;-75
2022/02/23 11:41:56;;;;;;;16.17;3.22;;;;;;;11.25;100.00;102446.94;5261626;28;20036;-74